Time;durP1;ratioP1;P1;durP2;ratioP2;P2;SDS_P1;SDS_P2;PMS_P1;PMS_P2;Temp;Humidity;BMP_temperature;BMP_pressure;BME280_temperature;BME280_humidity;BME280_pressure;Samples;Min_cycle;Max_cycle;Signal;HPM_P1;HPM_P2
2021/04/15 00:00:47;;;;;;;7.72;3.83;;;0.60;99.90;;;;;;2088308;28;20025;-64
2021/04/15 00:01:49;;;;;;;8.63;3.80;;;0.60;99.90;;;;;;2095452;28;20045;-65
2021/04/15 00:02:50;;;;;;;12.45;4.55;;;0.60;99.90;;;;;;2090273;28;20079;-65
2021/04/15 00:03:51;;;;;;;8.02;3.85;;;0.50;99.90;;;;;;2086379;28;20033;-64
2021/04/15 00:04:52;;;;;;;9.10;4.13;;;0.50;99.90;;;;;;2093815;28;20098;-65
2021/04/15 00:05:54;;;;;;;10.05;4.05;;;0.40;99.90;;;;;;2085811;28;20557;-64
2021/04/15 00:06:55;;;;;;;6.45;3.78;;;0.60;99.90;;;;;;2087268;28;20026;-65
2021/04/15 00:07:57;;;;;;;7.20;3.83;;;0.40;99.90;;;;;;2090099;28;20091;-65
2021/04/15 00:09:04;;;;;;;11.15;3.90;;;0.40;99.90;;;;;;2094982;28;20062;-64
2021/04/15 00:10:10;;;;;;;7.75;4.18;;;0.40;99.90;;;;;;2095510;28;20025;-65
2021/04/15 00:11:14;;;;;;;7.68;3.75;;;0.40;99.90;;;;;;2094496;28;20467;-64
2021/04/15 00:12:15;;;;;;;13.77;3.83;;;0.40;99.90;;;;;;2094136;28;20024;-64
2021/04/15 00:13:20;;;;;;;8.85;4.18;;;0.40;99.90;;;;;;2088840;28;20064;-65
2021/04/15 00:14:22;;;;;;;7.10;3.65;;;0.40;99.90;;;;;;2089495;28;20048;-64
2021/04/15 00:15:24;;;;;;;6.63;3.70;;;0.30;99.90;;;;;;2090158;28;20040;-64
2021/04/15 00:16:27;;;;;;;8.35;3.78;;;0.40;99.90;;;;;;2092076;28;20605;-64
2021/04/15 00:17:28;;;;;;;12.40;4.15;;;0.40;99.90;;;;;;2086416;28;20115;-64
2021/04/15 00:18:29;;;;;;;6.57;3.63;;;0.40;99.90;;;;;;2080626;28;20025;-64
2021/04/15 00:19:30;;;;;;;10.20;3.88;;;0.30;99.90;;;;;;2080457;28;20033;-65
2021/04/15 00:20:30;;;;;;;9.68;4.70;;;0.30;99.90;;;;;;2081530;28;20104;-65
2021/04/15 00:21:31;;;;;;;10.57;4.50;;;0.30;99.90;;;;;;2084711;28;20021;-64
2021/04/15 00:22:32;;;;;;;7.20;4.20;;;0.40;99.90;;;;;;2089149;28;20040;-64
2021/04/15 00:23:33;;;;;;;8.70;4.10;;;0.40;99.90;;;;;;2087788;28;20044;-65
2021/04/15 00:24:34;;;;;;;6.90;4.00;;;0.40;99.90;;;;;;2084389;28;20687;-64
2021/04/15 00:25:35;;;;;;;8.70;4.13;;;0.30;99.90;;;;;;2088056;28;20032;-65
2021/04/15 00:26:36;;;;;;;8.98;4.40;;;0.30;99.90;;;;;;2080578;28;20022;-65
2021/04/15 00:27:37;;;;;;;9.35;4.35;;;0.30;99.90;;;;;;2084600;28;20070;-64
2021/04/15 00:28:38;;;;;;;7.78;3.85;;;0.30;99.90;;;;;;2081481;28;20021;-64
2021/04/15 00:29:38;;;;;;;8.40;4.40;;;0.40;99.90;;;;;;2081680;28;20484;-66
2021/04/15 00:30:39;;;;;;;6.88;3.83;;;0.40;99.90;;;;;;2088300;28;20017;-64
2021/04/15 00:31:40;;;;;;;11.60;4.90;;;0.50;99.90;;;;;;2080132;28;20060;-64
2021/04/15 00:32:41;;;;;;;13.65;4.60;;;0.50;99.90;;;;;;2083951;28;20024;-64
2021/04/15 00:33:42;;;;;;;8.68;4.63;;;0.50;99.90;;;;;;2082275;28;20025;-64
2021/04/15 00:34:42;;;;;;;10.45;4.57;;;0.50;99.90;;;;;;2080973;28;20070;-64
2021/04/15 00:35:43;;;;;;;10.30;4.80;;;0.50;99.90;;;;;;2079882;28;20079;-64
2021/04/15 00:36:45;;;;;;;7.63;4.10;;;0.50;99.90;;;;;;2084592;28;20021;-64
2021/04/15 00:37:46;;;;;;;8.73;4.45;;;0.50;99.90;;;;;;2084792;28;20052;-64
2021/04/15 00:38:48;;;;;;;9.18;4.10;;;0.50;99.90;;;;;;2086817;28;20041;-65
2021/04/15 00:39:49;;;;;;;11.50;4.53;;;0.50;99.90;;;;;;2096058;28;20016;-64
2021/04/15 00:40:52;;;;;;;9.10;4.20;;;0.50;99.90;;;;;;2088512;28;20040;-64
2021/04/15 00:41:52;;;;;;;9.80;4.60;;;0.50;99.90;;;;;;2080953;28;20029;-64
2021/04/15 00:42:53;;;;;;;9.95;4.75;;;0.50;99.90;;;;;;2080994;28;20370;-65
2021/04/15 00:43:54;;;;;;;11.05;4.63;;;0.50;99.90;;;;;;2085054;28;20060;-65
2021/04/15 00:44:55;;;;;;;8.20;4.60;;;0.50;99.90;;;;;;2085519;28;20033;-65
2021/04/15 00:45:57;;;;;;;10.27;4.65;;;0.40;99.90;;;;;;2088189;28;20503;-64
2021/04/15 00:47:10;;;;;;;9.57;4.53;;;0.50;99.90;;;;;;2088289;28;20452;-64
2021/04/15 00:48:26;;;;;;;12.50;4.68;;;0.50;99.90;;;;;;2086995;28;20020;-64
2021/04/15 00:49:33;;;;;;;9.75;4.65;;;0.50;99.90;;;;;;2087620;28;20024;-65
2021/04/15 00:50:41;;;;;;;9.52;5.05;;;0.40;99.90;;;;;;2080746;28;20409;-65
2021/04/15 00:51:52;;;;;;;10.90;4.55;;;0.40;99.90;;;;;;2086448;28;20029;-65
2021/04/15 00:52:58;;;;;;;10.55;4.75;;;0.30;99.90;;;;;;2081385;28;20028;-64
2021/04/15 00:54:08;;;;;;;13.27;4.75;;;0.40;99.90;;;;;;2086312;28;20644;-64
2021/04/15 00:55:14;;;;;;;17.23;4.68;;;0.30;99.90;;;;;;2086214;28;20029;-64
2021/04/15 00:56:15;;;;;;;11.05;4.78;;;0.30;99.90;;;;;;2088971;28;20581;-64
2021/04/15 00:57:21;;;;;;;8.20;4.72;;;0.30;99.90;;;;;;2088768;28;20017;-64
2021/04/15 00:58:22;;;;;;;10.45;5.07;;;0.30;99.90;;;;;;2082747;28;20056;-64
2021/04/15 00:59:25;;;;;;;9.13;4.70;;;0.30;99.90;;;;;;2084036;28;20060;-64
2021/04/15 01:00:28;;;;;;;10.98;4.75;;;0.30;99.90;;;;;;2086281;28;20046;-64
2021/04/15 01:01:29;;;;;;;15.15;4.78;;;0.30;99.90;;;;;;2083735;28;20492;-63
2021/04/15 01:02:33;;;;;;;10.65;4.80;;;0.20;99.90;;;;;;2088985;28;20025;-63
2021/04/15 01:03:35;;;;;;;10.13;4.32;;;0.20;99.90;;;;;;2089039;28;20025;-64
2021/04/15 01:04:36;;;;;;;6.50;3.92;;;0.30;99.90;;;;;;2088615;28;20071;-63
2021/04/15 01:05:44;;;;;;;10.87;5.00;;;0.20;99.90;;;;;;2086725;28;20053;-63
2021/04/15 01:06:44;;;;;;;8.68;4.50;;;0.20;99.90;;;;;;2081813;28;20302;-63
2021/04/15 01:07:45;;;;;;;8.05;4.80;;;0.20;99.90;;;;;;2073555;28;20158;-63
2021/04/15 01:08:46;;;;;;;9.60;5.18;;;0.20;99.90;;;;;;2076004;28;20021;-63
2021/04/15 01:09:48;;;;;;;10.73;4.53;;;0.20;99.90;;;;;;2072815;28;20076;-63
2021/04/15 01:11:21;;;;;;;10.90;5.22;;;0.20;99.90;;;;;;2080262;28;20032;-63
2021/04/15 01:13:06;;;;;;;7.38;4.40;;;0.20;99.90;;;;;;2074798;28;20036;-63
2021/04/15 01:14:27;;;;;;;10.43;4.07;;;0.20;99.90;;;;;;2078100;28;20045;-63
2021/04/15 01:15:39;;;;;;;8.38;4.53;;;0.20;99.90;;;;;;2080547;28;20056;-63
2021/04/15 01:17:00;;;;;;;8.65;4.72;;;0.20;99.90;;;;;;2072736;28;20037;-63
2021/04/15 01:18:12;;;;;;;10.93;4.65;;;0.10;99.90;;;;;;2077916;28;20034;-63
2021/04/15 01:19:35;;;;;;;9.38;4.60;;;0.10;99.90;;;;;;2079425;28;20052;-64
2021/04/15 01:21:16;;;;;;;9.73;4.72;;;0.10;99.90;;;;;;2075961;28;20030;-63
2021/04/15 01:22:49;;;;;;;11.40;4.95;;;0.10;99.90;;;;;;2074988;28;20703;-63
2021/04/15 01:24:17;;;;;;;9.70;4.45;;;0.00;99.90;;;;;;2074971;28;20597;-63
2021/04/15 01:25:29;;;;;;;8.10;4.30;;;0.00;99.90;;;;;;2079747;28;20120;-63
2021/04/15 01:26:44;;;;;;;10.38;4.57;;;-0.10;99.90;;;;;;2080043;28;20029;-63
2021/04/15 01:27:55;;;;;;;8.75;4.20;;;-0.10;99.90;;;;;;2074064;28;20113;-64
2021/04/15 01:29:13;;;;;;;8.18;3.90;;;-0.20;99.90;;;;;;2073061;28;20138;-63
2021/04/15 01:30:25;;;;;;;6.65;4.22;;;-0.20;99.90;;;;;;2080661;28;20026;-63
2021/04/15 01:31:44;;;;;;;13.35;4.70;;;-0.20;99.90;;;;;;2073364;28;20158;-63
2021/04/15 01:33:06;;;;;;;8.48;4.45;;;-0.20;99.90;;;;;;2073972;28;20113;-64
2021/04/15 01:34:15;;;;;;;8.23;4.43;;;-0.30;99.90;;;;;;2079779;28;20111;-63
2021/04/15 01:35:28;;;;;;;12.20;4.20;;;-0.20;99.90;;;;;;2075889;28;20044;-64
2021/04/15 01:36:41;;;;;;;9.57;4.03;;;-0.30;99.90;;;;;;2079257;28;20013;-65
2021/04/15 01:37:48;;;;;;;9.75;4.13;;;-0.30;99.90;;;;;;2080512;28;20674;-64
2021/04/15 01:39:15;;;;;;;9.32;3.75;;;-0.30;99.90;;;;;;2075597;28;20425;-64
2021/04/15 01:40:29;;;;;;;6.40;3.80;;;-0.30;99.90;;;;;;2072639;28;20032;-64
2021/04/15 01:41:33;;;;;;;6.47;3.70;;;-0.20;99.90;;;;;;2072245;28;20026;-64
2021/04/15 01:42:45;;;;;;;5.85;3.75;;;-0.20;99.90;;;;;;2073272;28;20014;-64
2021/04/15 01:43:50;;;;;;;13.77;4.65;;;-0.20;99.90;;;;;;2078876;28;20040;-64
2021/04/15 01:45:00;;;;;;;12.20;4.45;;;-0.30;99.90;;;;;;2078786;28;20130;-64
2021/04/15 01:46:02;;;;;;;10.45;3.88;;;-0.30;99.90;;;;;;2080369;28;20473;-64
2021/04/15 01:47:08;;;;;;;9.73;3.85;;;-0.20;99.90;;;;;;2080903;28;20022;-64
2021/04/15 01:48:38;;;;;;;9.90;4.22;;;-0.20;99.90;;;;;;2080604;28;20022;-64
2021/04/15 01:49:43;;;;;;;7.75;3.72;;;-0.30;99.90;;;;;;2070499;28;20488;-64
2021/04/15 01:50:51;;;;;;;7.53;4.25;;;-0.30;99.90;;;;;;2072409;28;20054;-64
2021/04/15 01:51:54;;;;;;;6.85;3.78;;;-0.30;99.90;;;;;;2079834;28;20405;-64
2021/04/15 01:53:03;;;;;;;6.07;3.72;;;-0.30;99.90;;;;;;2077360;28;20788;-64
2021/04/15 01:54:10;;;;;;;7.10;3.70;;;-0.40;99.90;;;;;;2079381;28;20032;-64
2021/04/15 01:55:28;;;;;;;8.23;3.90;;;-0.40;99.90;;;;;;2073418;28;20446;-64
2021/04/15 01:56:43;;;;;;;10.45;4.38;;;-0.40;99.90;;;;;;2081682;28;20014;-63
2021/04/15 01:57:50;;;;;;;12.32;3.92;;;-0.40;99.90;;;;;;2072387;28;20032;-63
2021/04/15 01:59:06;;;;;;;7.93;4.07;;;-0.50;99.90;;;;;;2072408;28;20022;-63
2021/04/15 02:00:24;;;;;;;8.40;3.88;;;-0.50;99.90;;;;;;2075932;28;20025;-63
2021/04/15 02:01:26;;;;;;;9.95;3.88;;;-0.50;99.90;;;;;;2072262;28;20514;-64
2021/04/15 02:02:31;;;;;;;7.50;3.83;;;-0.50;99.90;;;;;;2073653;28;20026;-63
2021/04/15 02:03:35;;;;;;;7.20;3.20;;;-0.50;99.90;;;;;;2079865;28;20614;-64
2021/04/15 02:04:41;;;;;;;8.55;4.40;;;-0.50;99.90;;;;;;2079198;28;20029;-64
2021/04/15 02:05:43;;;;;;;6.22;3.78;;;-0.50;99.90;;;;;;2075185;28;20053;-64
2021/04/15 02:06:49;;;;;;;7.85;3.90;;;-0.50;99.90;;;;;;2071615;28;20363;-64
2021/04/15 02:08:02;;;;;;;10.60;3.10;;;-0.50;99.90;;;;;;2074647;28;20017;-64
2021/04/15 02:09:10;;;;;;;10.07;3.88;;;-0.60;99.90;;;;;;2080152;28;20022;-64
2021/04/15 02:10:13;;;;;;;13.18;3.05;;;-0.50;99.90;;;;;;2072459;28;20030;-64
2021/04/15 02:11:19;;;;;;;6.68;3.50;;;-0.60;99.90;;;;;;2074511;28;20029;-64
2021/04/15 02:12:24;;;;;;;10.43;3.47;;;-0.60;99.90;;;;;;2077801;28;20033;-64
2021/04/15 02:13:27;;;;;;;9.18;3.47;;;-0.70;99.90;;;;;;2073559;28;20539;-63
2021/04/15 02:14:32;;;;;;;7.22;3.55;;;-0.70;99.90;;;;;;2073767;28;20026;-63
2021/04/15 02:15:45;;;;;;;6.22;3.53;;;-0.60;99.90;;;;;;2080808;28;20025;-63
2021/04/15 02:16:50;;;;;;;8.90;3.90;;;-0.70;99.90;;;;;;2080142;28;20108;-63
2021/04/15 02:17:53;;;;;;;5.30;3.40;;;-0.60;99.90;;;;;;2079357;28;20032;-63
2021/04/15 02:19:24;;;;;;;9.20;3.35;;;-0.70;99.90;;;;;;2071842;28;20060;-63
2021/04/15 02:20:27;;;;;;;12.65;3.70;;;-0.70;99.90;;;;;;2074102;28;20033;-63
2021/04/15 02:21:41;;;;;;;9.23;3.55;;;-0.70;99.90;;;;;;2075883;28;20025;-63
2021/04/15 02:22:57;;;;;;;8.52;3.67;;;-0.70;99.90;;;;;;2080350;28;20021;-64
2021/04/15 02:24:21;;;;;;;10.10;3.38;;;-0.70;99.90;;;;;;2081507;28;20112;-64
2021/04/15 02:25:44;;;;;;;5.90;3.00;;;-0.70;99.90;;;;;;2085039;28;20021;-63
2021/04/15 02:26:46;;;;;;;9.82;3.35;;;-0.70;99.90;;;;;;2072253;28;20026;-63
2021/04/15 02:28:18;;;;;;;7.25;3.80;;;-0.70;99.90;;;;;;2072990;28;20037;-64
2021/04/15 02:29:25;;;;;;;10.93;3.33;;;-0.70;99.90;;;;;;2072468;28;20112;-63
2021/04/15 02:30:37;;;;;;;6.60;3.30;;;-0.60;99.90;;;;;;2071559;28;20548;-63
2021/04/15 02:31:48;;;;;;;8.32;3.30;;;-0.60;99.90;;;;;;2071829;28;20101;-63
2021/04/15 02:33:23;;;;;;;9.93;3.65;;;-0.50;99.90;;;;;;2071695;28;20017;-64
2021/04/15 02:34:29;;;;;;;6.63;3.15;;;-0.40;99.90;;;;;;2089571;28;20029;-63
2021/04/15 02:35:38;;;;;;;7.88;3.85;;;-0.40;99.90;;;;;;2086612;28;20078;-63
2021/04/15 02:36:45;;;;;;;8.05;3.80;;;-0.40;99.90;;;;;;2079385;28;20184;-63
2021/04/15 02:37:50;;;;;;;10.18;3.55;;;-0.40;99.90;;;;;;2079494;28;20099;-64
2021/04/15 02:39:16;;;;;;;9.45;4.30;;;-0.40;99.90;;;;;;2080437;28;20026;-63
2021/04/15 02:40:23;;;;;;;8.18;3.78;;;-0.50;99.90;;;;;;2076505;28;20103;-63
2021/04/15 02:41:27;;;;;;;10.38;3.42;;;-0.50;99.90;;;;;;2073840;28;20068;-64
2021/04/15 02:42:34;;;;;;;6.50;3.65;;;-0.50;99.90;;;;;;2078069;28;20520;-63
2021/04/15 02:43:49;;;;;;;16.35;3.95;;;-0.40;99.90;;;;;;2080408;28;20076;-64
2021/04/15 02:44:55;;;;;;;9.02;3.67;;;-0.40;99.90;;;;;;2079931;28;20401;-63
2021/04/15 02:45:59;;;;;;;6.75;3.38;;;-0.50;99.90;;;;;;2079365;28;20109;-63
2021/04/15 02:47:08;;;;;;;6.88;3.67;;;-0.40;99.90;;;;;;2079852;28;20055;-63
2021/04/15 02:48:24;;;;;;;8.57;3.85;;;-0.40;99.90;;;;;;2078147;28;20026;-63
2021/04/15 02:49:27;;;;;;;7.20;3.47;;;-0.40;99.90;;;;;;2072203;28;20021;-63
2021/04/15 02:50:30;;;;;;;7.88;3.78;;;-0.40;99.90;;;;;;2072368;28;20029;-63
2021/04/15 02:51:39;;;;;;;9.10;3.65;;;-0.40;99.90;;;;;;2076474;28;20400;-64
2021/04/15 02:52:43;;;;;;;10.82;3.63;;;-0.40;99.90;;;;;;2080488;28;20017;-63
2021/04/15 02:54:14;;;;;;;5.57;3.60;;;-0.40;99.90;;;;;;2079835;28;20049;-63
2021/04/15 02:55:19;;;;;;;9.90;3.85;;;-0.40;99.90;;;;;;2080187;28;20025;-63
2021/04/15 02:56:25;;;;;;;12.35;3.85;;;-0.40;99.90;;;;;;2084937;28;20582;-63
2021/04/15 02:57:39;;;;;;;11.88;4.15;;;-0.40;99.90;;;;;;2076678;28;20029;-64
2021/04/15 02:58:53;;;;;;;17.08;3.85;;;-0.40;99.90;;;;;;2072109;28;20022;-64
2021/04/15 03:00:09;;;;;;;9.93;3.38;;;-0.40;99.90;;;;;;2075419;28;20018;-63
2021/04/15 03:01:15;;;;;;;6.95;3.92;;;-0.40;99.90;;;;;;2075271;28;20123;-63
2021/04/15 03:02:27;;;;;;;8.40;3.90;;;-0.50;99.90;;;;;;2071926;28;20057;-64
2021/04/15 03:03:34;;;;;;;9.65;3.67;;;-0.50;99.90;;;;;;2073155;28;20393;-63
2021/04/15 03:04:39;;;;;;;10.13;3.75;;;-0.50;99.90;;;;;;2077694;28;20021;-63
2021/04/15 03:05:46;;;;;;;12.43;4.28;;;-0.50;99.90;;;;;;2072946;28;20028;-63
2021/04/15 03:06:48;;;;;;;9.88;4.10;;;-0.50;99.90;;;;;;2072178;28;20022;-64
2021/04/15 03:07:51;;;;;;;9.27;3.60;;;-0.50;99.90;;;;;;2075435;28;20047;-64
2021/04/15 03:08:57;;;;;;;11.00;4.05;;;-0.50;99.90;;;;;;2071611;28;20092;-64
2021/04/15 03:10:01;;;;;;;9.00;3.75;;;-0.50;99.90;;;;;;2079151;28;20060;-63
2021/04/15 03:11:12;;;;;;;8.55;3.95;;;-0.60;99.90;;;;;;2074088;28;20055;-63
2021/04/15 03:12:17;;;;;;;8.88;3.97;;;-0.60;99.90;;;;;;2080320;28;20420;-63
2021/04/15 03:13:26;;;;;;;6.05;3.63;;;-0.60;99.90;;;;;;2079104;28;20045;-63
2021/04/15 03:14:38;;;;;;;7.80;3.78;;;-0.70;99.90;;;;;;2079429;28;20025;-63
2021/04/15 03:15:46;;;;;;;10.07;4.13;;;-0.70;99.90;;;;;;2080331;28;20020;-64
2021/04/15 03:16:50;;;;;;;13.68;3.70;;;-0.70;99.90;;;;;;2075003;28;20171;-64
2021/04/15 03:17:56;;;;;;;10.90;3.50;;;-0.70;99.90;;;;;;2073022;28;20018;-64
2021/04/15 03:19:15;;;;;;;8.60;3.97;;;-0.80;99.90;;;;;;2075800;28;20686;-64
2021/04/15 03:20:23;;;;;;;8.52;3.70;;;-0.80;99.90;;;;;;2065131;28;20156;-64
2021/04/15 03:21:40;;;;;;;8.60;3.42;;;-0.80;99.90;;;;;;2068564;28;20033;-64
2021/04/15 03:22:55;;;;;;;8.90;3.90;;;-0.80;99.90;;;;;;2069940;28;20022;-64
2021/04/15 03:24:01;;;;;;;18.42;4.15;;;-0.90;99.90;;;;;;2076265;28;20029;-63
2021/04/15 03:25:04;;;;;;;9.35;3.67;;;-0.90;99.90;;;;;;2074715;28;20050;-63
2021/04/15 03:26:28;;;;;;;9.10;3.78;;;-0.90;99.90;;;;;;2077110;28;20515;-63
2021/04/15 03:27:48;;;;;;;11.50;3.95;;;-0.90;99.90;;;;;;2076358;28;20022;-63
2021/04/15 03:29:22;;;;;;;8.32;3.67;;;-0.90;99.90;;;;;;2071832;28;20022;-63
2021/04/15 03:30:40;;;;;;;10.45;4.40;;;-0.90;99.90;;;;;;2071479;28;20101;-63
2021/04/15 03:31:46;;;;;;;9.38;4.00;;;-0.90;99.90;;;;;;2079159;28;20029;-64
2021/04/15 03:32:52;;;;;;;12.68;3.72;;;-0.90;99.90;;;;;;2077522;28;20017;-64
2021/04/15 03:34:00;;;;;;;9.95;3.75;;;-0.90;99.90;;;;;;2072254;28;20030;-63
2021/04/15 03:35:21;;;;;;;7.32;3.80;;;-0.90;99.90;;;;;;2074295;28;20033;-63
2021/04/15 03:36:31;;;;;;;8.07;4.00;;;-0.80;99.90;;;;;;2077008;28;20501;-63
2021/04/15 03:37:46;;;;;;;11.55;4.00;;;-0.80;99.90;;;;;;2080095;28;20028;-64
2021/04/15 03:38:53;;;;;;;7.03;3.50;;;-0.80;99.90;;;;;;2080471;28;20116;-63
2021/04/15 03:39:55;;;;;;;7.97;3.70;;;-0.90;99.90;;;;;;2074592;28;20033;-63
2021/04/15 03:41:05;;;;;;;8.13;3.70;;;-0.90;99.90;;;;;;2072106;28;20037;-64
2021/04/15 03:42:14;;;;;;;7.57;3.60;;;-0.90;99.90;;;;;;2071994;28;20038;-63
2021/04/15 03:43:46;;;;;;;7.05;3.80;;;-0.90;99.90;;;;;;2074620;28;20097;-63
2021/04/15 03:44:50;;;;;;;11.45;3.70;;;-0.90;99.90;;;;;;2074695;28;20075;-63
2021/04/15 03:46:19;;;;;;;10.68;4.03;;;-0.80;99.90;;;;;;2080495;28;20473;-64
2021/04/15 03:47:29;;;;;;;11.48;4.20;;;-0.80;99.90;;;;;;2080046;28;20053;-63
2021/04/15 03:48:45;;;;;;;9.15;4.43;;;-0.90;99.90;;;;;;2081701;28;20099;-64
2021/04/15 03:50:00;;;;;;;9.60;3.58;;;-0.90;99.90;;;;;;2080590;28;20101;-64
2021/04/15 03:51:03;;;;;;;11.55;4.30;;;-0.90;99.90;;;;;;2073140;28;20061;-64
2021/04/15 03:52:19;;;;;;;6.28;3.78;;;-0.90;99.90;;;;;;2080258;28;20022;-64
2021/04/15 03:53:31;;;;;;;10.88;4.25;;;-0.90;99.90;;;;;;2075695;28;20022;-64
2021/04/15 03:54:38;;;;;;;7.32;4.20;;;-0.90;99.90;;;;;;2072959;28;20014;-64
2021/04/15 03:55:42;;;;;;;8.38;3.92;;;-0.90;99.90;;;;;;2080596;28;20048;-64
2021/04/15 03:56:47;;;;;;;9.98;3.65;;;-0.90;99.90;;;;;;2085813;28;20085;-64
2021/04/15 03:57:54;;;;;;;9.45;3.72;;;-0.90;99.90;;;;;;2077980;28;20118;-64
2021/04/15 03:59:11;;;;;;;9.80;4.10;;;-0.90;99.90;;;;;;2072949;28;20152;-64
2021/04/15 04:00:38;;;;;;;11.15;3.63;;;-0.90;99.90;;;;;;2073336;28;20072;-64
2021/04/15 04:01:52;;;;;;;7.05;4.10;;;-0.90;99.90;;;;;;2070129;28;20069;-64
2021/04/15 04:03:03;;;;;;;9.75;3.90;;;-0.90;99.90;;;;;;2077510;28;20069;-64
2021/04/15 04:04:24;;;;;;;11.23;4.00;;;-0.90;99.90;;;;;;2081251;28;20030;-64
2021/04/15 04:05:42;;;;;;;7.90;3.83;;;-0.90;99.90;;;;;;2081808;28;20038;-64
2021/04/15 04:06:46;;;;;;;9.77;4.15;;;-1.00;99.90;;;;;;2080371;28;20048;-64
2021/04/15 04:08:01;;;;;;;7.47;3.65;;;-0.90;99.90;;;;;;2078972;28;20033;-64
2021/04/15 04:09:13;;;;;;;6.45;3.85;;;-1.00;99.90;;;;;;2073626;28;20108;-63
2021/04/15 04:10:21;;;;;;;9.65;4.07;;;-1.00;99.90;;;;;;2081095;28;20553;-63
2021/04/15 04:11:24;;;;;;;8.55;3.63;;;-1.00;99.90;;;;;;2081074;28;20022;-64
2021/04/15 04:12:47;;;;;;;10.85;4.22;;;-1.00;99.90;;;;;;2073470;28;20424;-64
2021/04/15 04:13:58;;;;;;;7.38;4.07;;;-1.10;99.90;;;;;;2073257;28;20029;-64
2021/04/15 04:15:08;;;;;;;8.93;3.47;;;-1.10;99.90;;;;;;2079706;28;20026;-64
2021/04/15 04:16:15;;;;;;;10.07;4.32;;;-1.10;99.90;;;;;;2079517;28;20045;-64
2021/04/15 04:17:23;;;;;;;8.50;3.78;;;-1.10;99.90;;;;;;2076181;28;20026;-63
2021/04/15 04:18:30;;;;;;;10.00;3.75;;;-1.10;99.90;;;;;;2078921;28;20084;-63
2021/04/15 04:19:51;;;;;;;8.98;3.72;;;-1.10;99.90;;;;;;2072900;28;20025;-63
2021/04/15 04:21:01;;;;;;;10.00;3.90;;;-1.10;99.90;;;;;;2073407;28;20026;-63
2021/04/15 04:22:25;;;;;;;10.70;4.20;;;-1.20;99.90;;;;;;2079149;28;20025;-64
2021/04/15 04:23:34;;;;;;;12.02;3.50;;;-1.10;99.90;;;;;;2074133;28;20104;-63
2021/04/15 04:25:12;;;;;;;13.05;3.83;;;-1.20;99.90;;;;;;2074261;28;20022;-63
2021/04/15 04:26:23;;;;;;;7.32;3.15;;;-1.20;99.90;;;;;;2072174;28;20022;-64
2021/04/15 04:27:47;;;;;;;10.98;3.60;;;-1.20;99.90;;;;;;2072526;28;20525;-64
2021/04/15 04:29:06;;;;;;;8.32;3.70;;;-1.20;99.90;;;;;;2074714;28;20061;-64
2021/04/15 04:30:09;;;;;;;6.78;3.97;;;-1.30;99.90;;;;;;2073023;28;20374;-64
2021/04/15 04:31:21;;;;;;;10.02;3.80;;;-1.30;99.90;;;;;;2081887;28;20029;-64
2021/04/15 04:32:25;;;;;;;7.93;3.80;;;-1.40;99.90;;;;;;2079962;28;20084;-64
2021/04/15 04:33:41;;;;;;;8.60;3.38;;;-1.40;99.90;;;;;;2076475;28;20087;-63
2021/04/15 04:34:44;;;;;;;8.60;3.60;;;-1.40;99.90;;;;;;2078043;28;20025;-63
2021/04/15 04:35:47;;;;;;;11.88;3.97;;;-1.40;99.90;;;;;;2075908;28;20073;-64
2021/04/15 04:36:51;;;;;;;11.15;3.78;;;-1.40;99.90;;;;;;2074082;28;20033;-64
2021/04/15 04:37:53;;;;;;;7.10;3.97;;;-1.30;99.90;;;;;;2074497;28;20034;-64
2021/04/15 04:38:56;;;;;;;8.95;3.53;;;-1.40;99.90;;;;;;2077070;28;20030;-64
2021/04/15 04:39:59;;;;;;;9.20;4.10;;;-1.30;99.90;;;;;;2079808;28;20045;-63
2021/04/15 04:41:07;;;;;;;10.93;3.70;;;-1.30;99.90;;;;;;2081050;28;20065;-63
2021/04/15 04:42:19;;;;;;;10.32;4.00;;;-1.30;99.90;;;;;;2076306;28;20022;-63
2021/04/15 04:43:34;;;;;;;6.82;3.70;;;-1.30;99.90;;;;;;2075074;28;20030;-63
2021/04/15 04:44:53;;;;;;;9.15;3.75;;;-1.30;99.90;;;;;;2080205;28;20026;-63
2021/04/15 04:46:20;;;;;;;7.30;3.45;;;-1.30;99.90;;;;;;2080441;28;20025;-63
2021/04/15 04:47:51;;;;;;;6.70;3.30;;;-1.40;99.90;;;;;;2075444;28;20022;-64
2021/04/15 04:48:59;;;;;;;7.55;3.63;;;-1.40;99.90;;;;;;2072567;28;20025;-63
2021/04/15 04:50:21;;;;;;;8.98;3.85;;;-1.40;99.90;;;;;;2078938;28;20560;-63
2021/04/15 04:51:28;;;;;;;19.05;12.75;;;-1.50;99.90;;;;;;2076162;28;20021;-64
2021/04/15 04:52:31;;;;;;;9.48;5.15;;;-1.50;99.90;;;;;;2081187;28;20078;-64
2021/04/15 04:53:44;;;;;;;16.20;4.30;;;-1.50;99.90;;;;;;2080857;28;20057;-64
2021/04/15 04:54:45;;;;;;;15.98;4.70;;;-1.40;99.90;;;;;;2081302;28;20112;-68
2021/04/15 04:56:12;;;;;;;14.85;4.75;;;-1.40;99.90;;;;;;2085657;28;20358;-64
2021/04/15 04:57:36;;;;;;;12.43;5.00;;;-1.40;99.90;;;;;;2075868;28;20029;-64
2021/04/15 04:58:37;;;;;;;13.20;5.00;;;-1.30;99.90;;;;;;2077188;28;20025;-63
2021/04/15 04:59:43;;;;;;;13.30;4.65;;;-1.30;99.90;;;;;;2079295;28;20040;-63
2021/04/15 05:00:52;;;;;;;14.77;4.95;;;-1.30;99.90;;;;;;2072334;28;20049;-63
2021/04/15 05:01:53;;;;;;;9.73;4.70;;;-1.30;99.90;;;;;;2079378;28;20655;-63
2021/04/15 05:02:55;;;;;;;11.55;4.30;;;-1.30;99.90;;;;;;2077169;28;20026;-64
2021/04/15 05:04:00;;;;;;;10.18;4.13;;;-1.30;99.90;;;;;;2073152;28;20636;-63
2021/04/15 05:05:14;;;;;;;14.20;4.82;;;-1.30;99.90;;;;;;2073074;28;20026;-63
2021/04/15 05:06:27;;;;;;;18.10;4.70;;;-1.30;99.90;;;;;;2077628;28;20021;-63
2021/04/15 05:07:30;;;;;;;9.32;4.63;;;-1.30;99.90;;;;;;2080963;28;20021;-63
2021/04/15 05:09:03;;;;;;;13.10;4.47;;;-1.30;99.90;;;;;;2081441;28;20017;-63
2021/04/15 05:10:06;;;;;;;10.23;4.40;;;-1.30;99.90;;;;;;2076365;28;20018;-63
2021/04/15 05:11:07;;;;;;;8.88;4.40;;;-1.40;99.90;;;;;;2072753;28;20040;-64
2021/04/15 05:12:12;;;;;;;11.82;5.15;;;-1.30;99.90;;;;;;2076192;28;20037;-64
2021/04/15 05:13:23;;;;;;;12.82;4.78;;;-1.30;99.90;;;;;;2078696;28;20563;-64
2021/04/15 05:14:27;;;;;;;9.80;4.90;;;-1.40;99.90;;;;;;2080669;28;20026;-64
2021/04/15 05:15:27;;;;;;;9.68;4.03;;;-1.30;99.90;;;;;;2072748;28;20024;-64
2021/04/15 05:16:39;;;;;;;6.03;4.30;;;-1.30;99.90;;;;;;2077250;28;20032;-64
2021/04/15 05:17:41;;;;;;;14.23;5.32;;;-1.30;99.90;;;;;;2073261;28;20018;-64
2021/04/15 05:18:43;;;;;;;20.67;10.13;;;-1.30;99.90;;;;;;2081141;28;20014;-64
2021/04/15 05:19:44;;;;;;;15.93;7.90;;;-1.30;99.90;;;;;;2077274;28;20096;-64
2021/04/15 05:20:45;;;;;;;24.92;8.10;;;-1.30;99.90;;;;;;2072320;28;20018;-64
2021/04/15 05:21:49;;;;;;;22.88;9.68;;;-1.20;99.90;;;;;;2078113;28;20751;-64
2021/04/15 05:23:21;;;;;;;15.95;7.10;;;-1.20;99.90;;;;;;2076965;28;20029;-64
2021/04/15 05:24:28;;;;;;;13.23;6.97;;;-1.20;99.90;;;;;;2076892;28;20076;-64
2021/04/15 05:25:38;;;;;;;19.45;7.45;;;-1.30;99.90;;;;;;2079455;28;20672;-63
2021/04/15 05:26:41;;;;;;;20.70;6.70;;;-1.20;99.90;;;;;;2072984;28;20022;-64
2021/04/15 05:27:43;;;;;;;15.60;5.13;;;-1.20;99.90;;;;;;2072284;28;20425;-64
2021/04/15 05:28:46;;;;;;;12.60;5.45;;;-1.30;99.90;;;;;;2071990;28;20022;-63
2021/04/15 05:29:50;;;;;;;12.15;4.80;;;-1.30;99.90;;;;;;2071111;28;20623;-64
2021/04/15 05:30:52;;;;;;;25.05;7.00;;;-1.20;99.90;;;;;;2071818;28;20014;-64
2021/04/15 05:31:55;;;;;;;29.30;8.40;;;-1.20;99.90;;;;;;2072372;28;20018;-63
2021/04/15 05:32:59;;;;;;;20.60;8.57;;;-1.20;99.90;;;;;;2077393;28;20038;-63
2021/04/15 05:34:02;;;;;;;24.33;8.45;;;-1.20;99.90;;;;;;2073458;28;20028;-64
2021/04/15 05:35:03;;;;;;;18.38;8.27;;;-1.20;99.90;;;;;;2079622;28;20616;-64
2021/04/15 05:36:08;;;;;;;22.15;8.75;;;-1.20;99.90;;;;;;2078778;28;20020;-64
2021/04/15 05:37:15;;;;;;;19.90;8.75;;;-1.20;99.90;;;;;;2072803;28;20030;-63
2021/04/15 05:38:16;;;;;;;17.95;8.30;;;-1.20;99.90;;;;;;2079950;28;20574;-64
2021/04/15 05:39:19;;;;;;;25.05;8.48;;;-1.20;99.90;;;;;;2078933;28;20029;-63
2021/04/15 05:40:20;;;;;;;27.55;7.80;;;-1.20;99.90;;;;;;2072823;28;20466;-63
2021/04/15 05:41:32;;;;;;;18.95;7.72;;;-1.20;99.90;;;;;;2073073;28;20037;-63
2021/04/15 05:42:44;;;;;;;15.52;7.57;;;-1.20;99.90;;;;;;2072911;28;20080;-63
2021/04/15 05:43:51;;;;;;;20.55;8.32;;;-1.10;99.90;;;;;;2072168;28;20100;-64
2021/04/15 05:44:56;;;;;;;23.10;8.05;;;-1.20;99.90;;;;;;2077755;28;20615;-63
2021/04/15 05:46:08;;;;;;;21.08;9.43;;;-1.10;99.90;;;;;;2075930;28;20065;-63
2021/04/15 05:47:25;;;;;;;17.98;10.68;;;-1.10;99.90;;;;;;2072050;28;20033;-63
2021/04/15 05:48:27;;;;;;;19.80;9.30;;;-1.10;99.90;;;;;;2073104;28;20022;-64
2021/04/15 05:49:35;;;;;;;19.33;9.10;;;-1.00;99.90;;;;;;2071999;28;20661;-64
2021/04/15 05:50:52;;;;;;;21.70;8.73;;;-1.00;99.90;;;;;;2071190;28;20113;-63
2021/04/15 05:51:59;;;;;;;13.88;5.35;;;-1.00;99.90;;;;;;2079024;28;20515;-63
2021/04/15 05:53:26;;;;;;;10.35;5.35;;;-1.00;99.90;;;;;;2074941;28;20108;-64
2021/04/15 05:54:31;;;;;;;12.77;5.00;;;-1.00;99.90;;;;;;2078254;28;20452;-64
2021/04/15 05:55:40;;;;;;;14.35;4.32;;;-0.90;99.90;;;;;;2083604;28;20496;-63
2021/04/15 05:56:53;;;;;;;10.07;4.90;;;-0.90;99.90;;;;;;2083641;28;20097;-63
2021/04/15 05:57:59;;;;;;;;;;;-0.90;99.90;;;;;;2080819;28;20473;-64
2021/04/15 05:59:11;;;;;;;8.98;3.78;;;-0.90;99.90;;;;;;2073041;28;19906;-64
2021/04/15 06:00:15;;;;;;;12.70;4.50;;;-0.90;99.90;;;;;;2078360;28;20025;-64